Wortham, TX (76693)

7:43 PM CDT on August 29, 2015 (GMT -0500)
Amateur Radio Station KC5PID | | Change Station
CLOSE
Current Station
Personal Weather Station
Location: Mexia, TX
Elevation: 507 ft
Nearby Weather Stations

Elev 507 ft 31.67 °N, 96.47 °W | Updated 10 seconds ago

Partly Cloudy
Partly Cloudy
88.5 °F
Feels Like 92 °F
N
0.0
Wind Variable Wind from ESE
Gusts 0.0 mph

Today
High -- | Low -- °F
--% Chance of Precip.
Yesterday
High -- | Low -- °F
Precip. -- in
6:59 AM 7:53 PM
Full, 100% visible
Pressure 29.94 in
Visibility 10.0 miles
Clouds Clear
Heat Index 92 °F
Dew Point 68 °F
Humidity 50%
Rainfall 0.00 in
Snow Depth Not available.
UV 0.0 out of 12
Pollen 7.90 out of 12
Air Quality Not available.
Flu Activity Not available.
METAR KLXY 300035Z AUTO 12014KT 10SM CLR 31/18 A2994 RMK AO2 LTG DSNT NW T03050180
Pressure 29.94 in
Visibility 10.0 miles
Clouds Clear
Heat Index 92 °F
Dew Point 68 °F
Humidity 50%
Rainfall 0.00 in
Snow Depth Not available.
UV 0.0 out of 12
Pollen 7.90 out of 12
Air Quality Not available.
Flu Activity Not available.
METAR KLXY 300035Z AUTO 12014KT 10SM CLR 31/18 A2994 RMK AO2 LTG DSNT NW T03050180
Nowcast | as of 5:58 PM CDT on August 29, 2015

Isolated showers and thunderstorms near Jacksboro and Mineral Wells will continue moving eastward around 15 mph through the evening hours. Lightning and gusty downburst winds will be possible with the strongest activity. Additional showers and thunderstorms are possible across all of north and central Texas through the evening hours and overnight. Elsewhere...skies will be partly cloudy with temperatures falling into the mid 80s by 9pm.

×

10-Day Weather Forecast

×

Almanac

Astronomy

Aug. 29, 2015 Rise Set
Actual Time
Civil Twilight
Nautical Twilight
Astronomical Twilight
Moon
Length of Visible Light
Length of Day
Tomorrow will be .
, % of the Moon is Illuminated

Today's Extremes

State Highs State Lows

Community

WunderPhotos

Upload Photos

1,850,813 photos uploaded!

WunderBlogs® & News

Nearby

Air Quality

  Air Quality AQ Index Pollutant
Not available.

Snow Depth

Station Depth Elevation

Earthquake Activity

City Distance Mag. Time & Date
Minimum magnitude displayed is 2.5.

Coastal Water Temperatures

Place Temperature

Stations

Nearby Weather Stations

Station Location Temp. Windchill Dew Point Humidity Wind Precip. Elev Updated Type